createdAt,value
2017-11-06T00:00:19.071Z,9.00
2017-11-06T00:02:47.349Z,8.90
2017-11-06T00:05:15.629Z,9.00
2017-11-06T00:07:43.885Z,9.10
2017-11-06T00:10:13.762Z,9.10
2017-11-06T00:12:43.094Z,9.10
2017-11-06T00:15:11.450Z,8.90
2017-11-06T00:17:39.683Z,9.00
2017-11-06T00:20:07.982Z,9.10
2017-11-06T00:22:37.067Z,9.10
2017-11-06T00:25:05.358Z,9.00
2017-11-06T00:27:33.611Z,9.30
2017-11-06T00:30:01.857Z,9.40
2017-11-06T00:32:30.180Z,9.00
2017-11-06T00:34:58.465Z,9.20
2017-11-06T00:37:29.026Z,9.10
2017-11-06T00:39:57.303Z,9.10
2017-11-06T00:42:26.562Z,8.90
2017-11-06T00:44:54.802Z,9.40
2017-11-06T00:47:23.161Z,9.20
2017-11-06T00:49:52.264Z,8.90
2017-11-06T00:52:21.290Z,9.10
2017-11-06T00:54:49.598Z,8.90
2017-11-06T00:57:17.865Z,9.10
2017-11-06T00:59:46.113Z,8.80
2017-11-06T01:02:14.617Z,8.60
2017-11-06T01:04:43.789Z,8.90
2017-11-06T01:07:13.039Z,9.10
2017-11-06T01:09:41.321Z,9.00
2017-11-06T01:12:09.615Z,9.00
2017-11-06T01:14:38.754Z,9.10
2017-11-06T01:17:07.854Z,9.00
2017-11-06T01:19:37.161Z,8.90
2017-11-06T01:22:05.484Z,9.00
2017-11-06T01:24:34.601Z,9.00
2017-11-06T01:27:02.894Z,8.90
2017-11-06T01:29:31.151Z,9.00
2017-11-06T01:31:59.458Z,8.80
2017-11-06T01:34:29.898Z,8.60
2017-11-06T01:36:58.156Z,8.80
2017-11-06T01:39:26.432Z,8.70
2017-11-06T01:41:54.708Z,8.80
2017-11-06T01:44:22.982Z,8.90
2017-11-06T01:46:52.817Z,9.00
2017-11-06T01:49:22.054Z,8.60
2017-11-06T01:51:50.353Z,9.00
2017-11-06T01:54:18.618Z,8.90
2017-11-06T01:56:59.686Z,9.00
2017-11-06T01:59:28.721Z,8.80
2017-11-06T02:01:57.024Z,8.90
2017-11-06T02:04:27.069Z,8.70
2017-11-06T02:06:55.339Z,8.60
2017-11-06T02:09:23.829Z,8.70
2017-11-06T02:11:52.078Z,8.70
2017-11-06T02:14:20.373Z,8.90
2017-11-06T02:16:49.407Z,8.70
2017-11-06T02:19:17.661Z,8.80
2017-11-06T02:21:45.949Z,8.70
2017-11-06T02:24:14.236Z,9.10
2017-11-06T02:26:42.519Z,8.80
2017-11-06T02:29:10.777Z,8.80
2017-11-06T02:31:39.058Z,9.00
2017-11-06T02:34:07.429Z,9.00
2017-11-06T02:36:36.437Z,9.10
2017-11-06T02:39:04.689Z,9.00
2017-11-06T02:41:32.992Z,9.00
2017-11-06T02:44:01.242Z,9.00
2017-11-06T02:46:31.263Z,8.60
2017-11-06T02:48:59.587Z,8.60
2017-11-06T02:51:27.825Z,9.00
2017-11-06T02:53:56.072Z,8.70
2017-11-06T02:56:25.138Z,8.80
2017-11-06T02:58:53.388Z,8.70
2017-11-06T03:01:22.517Z,8.80
2017-11-06T03:03:50.834Z,8.90
2017-11-06T03:06:19.858Z,8.80
2017-11-06T03:08:48.124Z,8.80
2017-11-06T03:11:16.401Z,9.00
2017-11-06T03:13:44.675Z,8.90
2017-11-06T03:16:12.937Z,9.00
2017-11-06T03:18:41.222Z,8.70
2017-11-06T03:21:09.493Z,8.90
2017-11-06T03:23:39.377Z,9.00
2017-11-06T03:26:08.236Z,8.60
2017-11-06T03:28:36.492Z,8.70
2017-11-06T03:31:04.771Z,8.60
2017-11-06T03:33:33.044Z,8.80
2017-11-06T03:36:01.335Z,8.70
2017-11-06T03:38:29.585Z,8.80
2017-11-06T03:40:57.836Z,9.00
2017-11-06T03:43:26.100Z,8.70
2017-11-06T03:45:54.415Z,8.80
2017-11-06T03:48:22.695Z,8.80
2017-11-06T03:50:50.948Z,8.80
2017-11-06T03:53:19.998Z,8.70
2017-11-06T03:55:48.269Z,8.50
2017-11-06T03:58:16.536Z,8.70
2017-11-06T04:00:45.609Z,8.70
2017-11-06T04:03:13.889Z,8.80
2017-11-06T04:05:42.152Z,8.70
2017-11-06T04:08:11.165Z,8.60
2017-11-06T04:10:39.448Z,9.00
2017-11-06T04:13:07.691Z,9.00
2017-11-06T04:15:36.717Z,8.80
2017-11-06T04:18:04.988Z,8.70
2017-11-06T04:20:33.247Z,9.00
2017-11-06T04:23:01.570Z,8.60
2017-11-06T04:25:29.885Z,8.70
2017-11-06T04:27:58.159Z,9.00
2017-11-06T04:30:26.477Z,8.90
2017-11-06T04:32:54.770Z,8.60
2017-11-06T04:35:23.061Z,8.60
2017-11-06T04:37:52.131Z,8.90
2017-11-06T04:40:20.404Z,8.90
2017-11-06T04:42:48.674Z,9.00
2017-11-06T04:45:16.984Z,8.60
2017-11-06T04:47:45.297Z,9.00
2017-11-06T04:50:14.321Z,8.50
2017-11-06T04:52:42.583Z,8.60
2017-11-06T04:55:11.614Z,8.80
2017-11-06T04:57:40.943Z,8.70
2017-11-06T05:00:09.235Z,8.40
2017-11-06T05:02:37.526Z,8.60
2017-11-06T05:05:05.771Z,8.70
2017-11-06T05:07:34.534Z,8.70
2017-11-06T05:10:02.846Z,8.90
2017-11-06T05:12:31.093Z,8.70
2017-11-06T05:14:59.414Z,8.70
2017-11-06T05:17:27.670Z,9.00
2017-11-06T05:19:56.700Z,8.60
2017-11-06T05:22:25.000Z,9.00
2017-11-06T05:24:53.258Z,9.00
2017-11-06T05:27:21.542Z,8.60
2017-11-06T05:29:49.822Z,8.80
2017-11-06T05:32:18.133Z,8.80
2017-11-06T05:34:46.526Z,8.70
2017-11-06T05:37:14.765Z,8.60
2017-11-06T05:39:43.058Z,9.00
2017-11-06T05:42:11.309Z,8.90
2017-11-06T05:44:39.667Z,8.80
2017-11-06T05:47:07.977Z,8.60
2017-11-06T05:49:36.245Z,8.60
2017-11-06T05:52:04.529Z,8.80
2017-11-06T05:54:32.773Z,9.00
2017-11-06T05:57:01.103Z,8.70
2017-11-06T05:59:29.488Z,8.80
2017-11-06T06:01:57.726Z,8.60
2017-11-06T06:04:25.981Z,8.90
2017-11-06T06:06:54.523Z,9.00
2017-11-06T06:09:22.749Z,9.00
2017-11-06T06:11:51.011Z,9.00
2017-11-06T06:14:19.351Z,9.10
2017-11-06T06:16:47.584Z,9.00
2017-11-06T06:19:16.006Z,8.90
2017-11-06T06:21:44.310Z,8.90
2017-11-06T06:24:12.588Z,9.00
2017-11-06T06:26:41.042Z,8.90
2017-11-06T06:29:09.359Z,8.90
2017-11-06T06:31:37.618Z,9.20
2017-11-06T06:34:06.740Z,9.20
2017-11-06T06:36:34.988Z,9.20
2017-11-06T06:39:03.238Z,9.10
2017-11-06T06:41:31.524Z,9.30
2017-11-06T06:44:01.301Z,9.30
2017-11-06T06:46:29.544Z,8.90
2017-11-06T06:48:57.949Z,9.00
2017-11-06T06:51:26.225Z,9.30
2017-11-06T06:53:54.494Z,9.00
2017-11-06T06:56:22.741Z,9.20
2017-11-06T06:58:51.017Z,9.40
2017-11-06T07:01:19.270Z,9.30
2017-11-06T07:03:48.297Z,8.90
2017-11-06T07:06:16.698Z,9.00
2017-11-06T07:08:44.966Z,9.30
2017-11-06T07:11:13.244Z,9.30
2017-11-06T07:13:41.505Z,9.30
2017-11-06T07:16:09.754Z,9.30
2017-11-06T07:18:38.815Z,9.30
2017-11-06T07:21:07.113Z,9.20
2017-11-06T07:23:37.120Z,9.20
2017-11-06T07:26:05.394Z,9.30
2017-11-06T07:28:33.685Z,9.30
2017-11-06T07:31:02.932Z,9.30
2017-11-06T07:33:31.260Z,9.20
2017-11-06T07:36:00.421Z,9.40
2017-11-06T07:38:28.698Z,9.00
2017-11-06T07:40:56.952Z,9.30
2017-11-06T07:43:25.977Z,9.40
2017-11-06T07:45:54.229Z,9.30
2017-11-06T07:48:22.496Z,9.30
2017-11-06T07:50:51.561Z,9.50
2017-11-06T07:53:21.537Z,9.60
2017-11-06T07:55:49.793Z,9.50
2017-11-06T07:58:18.073Z,9.50
2017-11-06T08:00:46.327Z,9.30
2017-11-06T08:03:14.589Z,9.40
2017-11-06T08:05:43.681Z,9.70
2017-11-06T08:08:12.688Z,9.60
2017-11-06T08:10:40.954Z,9.60
2017-11-06T08:13:10.018Z,9.60
2017-11-06T08:15:38.258Z,9.60
2017-11-06T08:18:06.512Z,9.70
2017-11-06T08:20:34.810Z,9.70
2017-11-06T08:23:03.057Z,9.50
2017-11-06T08:25:32.190Z,9.70
2017-11-06T08:28:00.447Z,9.80
2017-11-06T08:30:28.691Z,9.70
2017-11-06T08:32:57.753Z,9.80
2017-11-06T08:35:26.838Z,9.80
2017-11-06T08:37:55.094Z,10.10
2017-11-06T08:40:23.381Z,10.10
2017-11-06T08:42:51.645Z,10.00
2017-11-06T08:45:19.966Z,10.00
2017-11-06T08:47:48.353Z,10.00
2017-11-06T08:50:16.618Z,10.00
2017-11-06T08:52:44.899Z,10.30
2017-11-06T08:55:14.889Z,10.30
2017-11-06T08:57:43.170Z,10.70
2017-11-06T09:00:11.441Z,10.90
2017-11-06T09:02:39.760Z,11.10
2017-11-06T09:05:08.913Z,11.00
2017-11-06T09:07:37.188Z,11.20
2017-11-06T09:10:06.252Z,11.30
2017-11-06T09:12:35.308Z,11.30
2017-11-06T09:15:03.582Z,11.30
2017-11-06T09:17:31.862Z,11.00
2017-11-06T09:20:00.124Z,10.90
2017-11-06T09:22:28.385Z,10.70
2017-11-06T09:24:56.705Z,10.80
2017-11-06T09:27:25.002Z,10.60
2017-11-06T09:29:53.286Z,10.40
2017-11-06T09:32:22.477Z,10.60
2017-11-06T09:34:51.577Z,10.60
2017-11-06T09:37:19.885Z,10.30
2017-11-06T09:39:48.151Z,10.50
2017-11-06T09:42:16.418Z,10.50
2017-11-06T09:44:44.747Z,10.70
2017-11-06T09:47:13.037Z,10.80
2017-11-06T09:49:42.053Z,10.60
2017-11-06T09:52:10.329Z,10.80
2017-11-06T09:54:38.641Z,10.80
2017-11-06T09:57:06.925Z,10.60
2017-11-06T09:59:35.189Z,10.90
2017-11-06T10:02:03.458Z,11.10
2017-11-06T10:04:31.768Z,11.00
2017-11-06T10:07:00.025Z,11.10
2017-11-06T10:09:28.294Z,10.90
2017-11-06T10:11:56.576Z,10.70
2017-11-06T10:14:24.858Z,10.90
2017-11-06T10:16:53.112Z,10.80
2017-11-06T10:19:21.393Z,10.90
2017-11-06T10:21:49.686Z,11.10
2017-11-06T10:24:17.937Z,11.10
2017-11-06T10:26:46.218Z,11.00
2017-11-06T10:29:14.515Z,11.00
2017-11-06T10:31:42.814Z,11.00
2017-11-06T10:34:11.173Z,11.20
2017-11-06T10:36:39.455Z,11.30
2017-11-06T10:39:07.760Z,11.30
2017-11-06T10:41:36.793Z,11.20
2017-11-06T10:44:05.111Z,11.20
2017-11-06T10:46:33.360Z,11.50
2017-11-06T10:49:02.365Z,11.40
2017-11-06T10:51:30.669Z,11.50
2017-11-06T10:53:58.949Z,11.40
2017-11-06T10:56:27.220Z,11.40
2017-11-06T10:58:56.385Z,11.50
2017-11-06T11:01:24.673Z,11.50
2017-11-06T11:03:52.960Z,11.50
2017-11-06T11:06:22.018Z,11.60
2017-11-06T11:08:50.301Z,11.40
2017-11-06T11:11:18.600Z,11.30
2017-11-06T11:13:46.978Z,11.30
2017-11-06T11:16:15.235Z,11.40
2017-11-06T11:18:43.554Z,11.70
2017-11-06T11:21:11.836Z,11.40
2017-11-06T11:23:40.128Z,11.30
2017-11-06T11:26:08.441Z,11.60
2017-11-06T11:28:37.686Z,11.20
2017-11-06T11:31:05.953Z,11.40
2017-11-06T11:33:34.237Z,11.40
2017-11-06T11:36:02.507Z,11.20
2017-11-06T11:38:30.992Z,11.20
2017-11-06T11:40:59.262Z,11.10
2017-11-06T11:43:27.544Z,11.10
2017-11-06T11:45:55.973Z,11.30
2017-11-06T11:48:24.259Z,11.50
2017-11-06T11:50:52.616Z,11.40
2017-11-06T11:53:21.859Z,11.50
2017-11-06T11:55:50.117Z,11.30
2017-11-06T11:58:18.404Z,11.50
2017-11-06T12:00:46.769Z,11.30
2017-11-06T12:03:16.209Z,11.60
2017-11-06T12:05:44.436Z,11.90
2017-11-06T12:08:13.682Z,11.90
2017-11-06T12:10:42.703Z,11.80
2017-11-06T12:13:11.828Z,11.90
2017-11-06T12:15:41.111Z,11.90
2017-11-06T12:18:09.667Z,12.00
2017-11-06T12:21:48.225Z,11.80
2017-11-06T12:24:16.472Z,11.60
2017-11-06T12:26:45.509Z,11.90
2017-11-06T12:29:13.773Z,12.00
2017-11-06T12:31:43.014Z,12.10
2017-11-06T12:34:12.111Z,12.10
2017-11-06T12:36:40.397Z,12.00
2017-11-06T12:39:10.422Z,11.90
2017-11-06T12:41:39.613Z,12.00
2017-11-06T12:44:07.883Z,11.80
2017-11-06T12:46:36.173Z,11.70
2017-11-06T12:49:04.441Z,11.80
2017-11-06T12:51:32.735Z,12.00
2017-11-06T12:54:01.032Z,12.00
2017-11-06T12:56:29.285Z,12.40
2017-11-06T12:58:57.566Z,12.40
2017-11-06T13:01:25.851Z,12.40
2017-11-06T13:03:55.096Z,12.70
2017-11-06T13:06:24.900Z,12.70
2017-11-06T13:08:53.161Z,12.60
2017-11-06T13:11:21.445Z,12.50
2017-11-06T13:13:49.789Z,12.50
2017-11-06T13:16:18.089Z,12.70
2017-11-06T13:18:46.345Z,12.70
2017-11-06T13:21:14.600Z,12.70
2017-11-06T13:23:43.645Z,12.80
2017-11-06T13:26:11.912Z,12.80
2017-11-06T13:28:40.165Z,12.70
2017-11-06T13:31:09.112Z,12.70
2017-11-06T13:33:38.471Z,12.80
2017-11-06T13:36:06.740Z,13.00
2017-11-06T13:38:35.017Z,12.90
2017-11-06T13:41:03.492Z,12.60
2017-11-06T13:43:32.551Z,12.70
2017-11-06T13:46:00.836Z,12.80
2017-11-06T13:48:29.093Z,12.60
2017-11-06T13:50:57.354Z,12.50
2017-11-06T13:53:25.703Z,12.70
2017-11-06T13:55:54.011Z,12.80
2017-11-06T13:58:22.282Z,12.70
2017-11-06T14:00:50.804Z,13.10
2017-11-06T14:03:19.075Z,12.90
2017-11-06T14:05:47.326Z,12.80
2017-11-06T14:08:15.605Z,13.10
2017-11-06T14:10:43.861Z,12.90
2017-11-06T14:13:12.958Z,12.80
2017-11-06T14:15:42.969Z,12.90
2017-11-06T14:18:11.395Z,12.80
2017-11-06T14:20:39.679Z,13.00
2017-11-06T14:23:08.061Z,13.20
2017-11-06T14:25:37.950Z,13.00
2017-11-06T14:28:07.197Z,12.80
2017-11-06T14:30:36.478Z,12.90
2017-11-06T14:33:05.484Z,13.20
2017-11-06T14:35:33.753Z,12.90
2017-11-06T14:38:02.826Z,13.10
2017-11-06T14:40:31.889Z,13.00
2017-11-06T14:43:00.162Z,13.30
2017-11-06T14:45:28.409Z,13.40
2017-11-06T14:47:57.514Z,13.00
2017-11-06T14:50:25.802Z,13.30
2017-11-06T14:52:54.042Z,13.00
2017-11-06T14:55:23.085Z,12.90
2017-11-06T14:57:51.390Z,12.90
2017-11-06T15:00:20.477Z,12.80
2017-11-06T15:02:48.755Z,12.70
2017-11-06T15:05:17.001Z,12.80
2017-11-06T15:07:45.241Z,13.00
2017-11-06T15:10:13.552Z,12.90
2017-11-06T15:12:45.612Z,12.80
2017-11-06T15:15:13.917Z,12.80
2017-11-06T15:17:43.898Z,13.00
2017-11-06T15:20:12.209Z,12.70
2017-11-06T15:22:40.508Z,12.70
2017-11-06T15:25:08.837Z,12.80
2017-11-06T15:27:37.077Z,12.90
2017-11-06T15:30:06.411Z,12.70
2017-11-06T15:32:34.698Z,12.80
2017-11-06T15:35:02.965Z,12.40
2017-11-06T15:37:31.269Z,12.40
2017-11-06T15:40:00.477Z,12.40
2017-11-06T15:42:28.929Z,12.60
2017-11-06T15:44:57.185Z,12.10
2017-11-06T15:47:25.464Z,12.20
2017-11-06T15:49:53.717Z,12.20
2017-11-06T15:52:21.977Z,12.10
2017-11-06T15:54:51.735Z,12.00
2017-11-06T15:57:20.009Z,12.30
2017-11-06T15:59:49.253Z,12.10
2017-11-06T16:02:17.528Z,12.10
2017-11-06T16:04:45.785Z,12.20
2017-11-06T16:07:14.043Z,12.10
2017-11-06T16:09:42.337Z,11.70
2017-11-06T16:12:10.586Z,12.00
2017-11-06T16:14:38.846Z,11.80
2017-11-06T16:17:07.117Z,11.90
2017-11-06T16:19:35.427Z,11.40
2017-11-06T16:22:03.689Z,11.70
2017-11-06T16:24:31.961Z,11.40
2017-11-06T16:27:00.273Z,11.60
2017-11-06T16:29:28.566Z,11.50
2017-11-06T16:31:56.843Z,11.40
2017-11-06T16:34:25.836Z,11.30
2017-11-06T16:36:54.111Z,11.40
2017-11-06T16:39:22.409Z,11.10
2017-11-06T16:41:50.675Z,11.30
2017-11-06T16:44:20.445Z,11.20
2017-11-06T16:46:48.753Z,11.20
2017-11-06T16:49:17.933Z,11.00
2017-11-06T16:51:46.229Z,11.20
2017-11-06T16:54:14.515Z,11.10
2017-11-06T16:56:42.786Z,11.20
2017-11-06T16:59:11.073Z,10.80
2017-11-06T17:01:39.344Z,10.90
2017-11-06T17:04:07.631Z,11.00
2017-11-06T17:06:35.945Z,11.00
2017-11-06T17:09:04.237Z,11.00
2017-11-06T17:11:32.499Z,10.80
2017-11-06T17:14:00.790Z,10.80
2017-11-06T17:16:29.050Z,10.40
2017-11-06T17:18:58.909Z,10.40
2017-11-06T17:21:28.685Z,10.30
2017-11-06T17:23:56.960Z,10.30
2017-11-06T17:26:25.576Z,10.40
2017-11-06T17:28:53.877Z,10.30
2017-11-06T17:31:22.157Z,10.50
2017-11-06T17:33:51.473Z,10.30
2017-11-06T17:36:19.745Z,10.10
2017-11-06T17:38:48.029Z,10.50
2017-11-06T17:41:16.997Z,10.50
2017-11-06T17:43:46.995Z,10.20
2017-11-06T17:46:15.472Z,10.00
2017-11-06T17:48:43.739Z,10.00
2017-11-06T17:51:12.013Z,10.20
2017-11-06T17:53:40.278Z,10.10
2017-11-06T17:56:08.603Z,10.10
2017-11-06T17:58:37.732Z,9.90
2017-11-06T18:01:05.978Z,10.00
2017-11-06T18:03:35.719Z,9.80
2017-11-06T18:06:03.966Z,9.90
2017-11-06T18:08:32.217Z,9.90
2017-11-06T18:11:01.572Z,9.80
2017-11-06T18:13:29.829Z,9.80
2017-11-06T18:15:58.099Z,9.80
2017-11-06T18:18:26.392Z,9.40
2017-11-06T18:20:59.742Z,9.50
2017-11-06T18:23:33.198Z,9.60
2017-11-06T18:26:02.022Z,9.70
2017-11-06T18:28:30.271Z,9.60
2017-11-06T18:30:58.621Z,9.50
2017-11-06T18:33:26.881Z,9.40
2017-11-06T18:35:55.175Z,9.40
2017-11-06T18:38:23.724Z,9.30
2017-11-06T18:40:52.801Z,9.30
2017-11-06T18:43:21.060Z,9.30
2017-11-06T18:45:49.473Z,9.20
2017-11-06T18:48:17.822Z,9.30
2017-11-06T18:50:46.066Z,9.30
2017-11-06T18:53:15.332Z,9.40
2017-11-06T18:55:43.586Z,9.40
2017-11-06T18:58:11.835Z,9.30
2017-11-06T19:00:40.129Z,9.00
2017-11-06T19:03:09.420Z,9.20
2017-11-06T19:05:39.394Z,9.10
2017-11-06T19:08:08.651Z,9.00
2017-11-06T19:10:36.920Z,8.90
2017-11-06T19:13:05.204Z,9.10
2017-11-06T19:15:33.510Z,9.00
2017-11-06T19:18:01.777Z,9.20
2017-11-06T19:20:31.557Z,9.30
2017-11-06T19:23:00.059Z,9.20
2017-11-06T19:25:28.383Z,9.40
2017-11-06T19:27:57.946Z,9.50
2017-11-06T19:30:27.047Z,9.40
2017-11-06T19:32:55.319Z,9.30
2017-11-06T19:35:23.615Z,9.40
2017-11-06T19:37:51.894Z,9.30
2017-11-06T19:40:20.161Z,9.40
2017-11-06T19:42:49.926Z,9.30
2017-11-06T19:45:18.241Z,9.30
2017-11-06T19:47:48.132Z,9.50
2017-11-06T19:50:16.427Z,9.40
2017-11-06T19:52:44.881Z,9.40
2017-11-06T19:55:14.045Z,9.40
2017-11-06T19:57:42.407Z,9.20
2017-11-06T20:00:11.648Z,9.40
2017-11-06T20:02:40.196Z,9.30
2017-11-06T20:05:09.662Z,9.20
2017-11-06T20:07:39.005Z,9.20
2017-11-06T20:10:07.853Z,9.30
2017-11-06T20:12:37.197Z,9.30
2017-11-06T20:15:05.801Z,9.40
2017-11-06T20:17:34.389Z,9.30
2017-11-06T20:20:03.748Z,9.30
2017-11-06T20:22:32.330Z,9.40
2017-11-06T20:25:01.955Z,9.30
2017-11-06T20:27:30.617Z,9.30
2017-11-06T20:29:59.218Z,9.30
2017-11-06T20:32:28.666Z,9.40
2017-11-06T20:34:57.247Z,9.40
2017-11-06T20:37:25.962Z,9.40
2017-11-06T20:39:56.070Z,9.30
2017-11-06T20:42:24.767Z,9.30
2017-11-06T20:44:53.932Z,9.40
2017-11-06T20:47:22.496Z,9.70
2017-11-06T20:49:51.911Z,9.60
2017-11-06T20:52:22.559Z,9.70
2017-11-06T20:54:51.927Z,9.70
2017-11-06T20:57:20.276Z,9.60
2017-11-06T20:59:49.314Z,9.70
2017-11-06T21:02:18.536Z,9.70
2017-11-06T21:04:48.321Z,9.60
2017-11-06T21:07:16.629Z,9.60
2017-11-06T21:09:44.929Z,9.60
2017-11-06T21:12:21.933Z,9.70
2017-11-06T21:14:50.442Z,9.70
2017-11-06T21:17:18.831Z,9.70
2017-11-06T21:19:47.154Z,9.70
2017-11-06T21:22:15.546Z,10.00
2017-11-06T21:24:43.901Z,9.70
2017-11-06T21:27:12.941Z,10.10
2017-11-06T21:29:46.922Z,9.70
2017-11-06T21:32:15.176Z,9.70
2017-11-06T21:34:44.225Z,9.80
2017-11-06T21:37:12.525Z,9.80
2017-11-06T21:39:40.822Z,9.80
2017-11-06T21:42:09.082Z,9.70
2017-11-06T21:44:38.297Z,9.90
2017-11-06T21:47:06.584Z,9.80
2017-11-06T21:49:34.844Z,9.90
2017-11-06T21:52:03.145Z,9.60
2017-11-06T21:54:31.447Z,9.60
2017-11-06T21:57:00.605Z,10.00
2017-11-06T21:59:29.629Z,9.90
2017-11-06T22:01:58.033Z,9.90
2017-11-06T22:04:30.408Z,9.60
2017-11-06T22:06:58.662Z,9.70
2017-11-06T22:09:27.797Z,9.70
2017-11-06T22:11:56.060Z,9.80
2017-11-06T22:14:24.662Z,9.60
2017-11-06T22:16:52.944Z,9.80
2017-11-06T22:19:21.236Z,9.90
2017-11-06T22:21:49.506Z,9.60
2017-11-06T22:24:18.610Z,9.90
2017-11-06T22:26:47.953Z,9.90
2017-11-06T22:29:17.230Z,10.00
2017-11-06T22:31:45.551Z,9.90
2017-11-06T22:34:13.826Z,10.00
2017-11-06T22:36:42.956Z,10.10
2017-11-06T22:39:12.079Z,10.00
2017-11-06T22:41:40.527Z,10.10
2017-11-06T22:44:09.395Z,9.90
2017-11-06T22:46:37.669Z,9.60
2017-11-06T22:49:06.867Z,9.90
2017-11-06T22:51:35.850Z,9.70
2017-11-06T22:54:04.106Z,9.60
2017-11-06T22:56:32.362Z,9.60
2017-11-06T22:59:01.911Z,9.80
2017-11-06T23:01:32.131Z,9.70
2017-11-06T23:04:01.338Z,9.60
2017-11-06T23:06:30.501Z,9.70
2017-11-06T23:09:00.433Z,9.60
2017-11-06T23:11:28.829Z,9.70
2017-11-06T23:13:57.335Z,9.60
2017-11-06T23:16:25.658Z,9.40
2017-11-06T23:18:53.905Z,9.50
2017-11-06T23:21:22.216Z,9.30
2017-11-06T23:23:50.465Z,9.30
2017-11-06T23:26:18.722Z,9.40
2017-11-06T23:28:47.013Z,9.60
2017-11-06T23:31:15.362Z,9.60
2017-11-06T23:33:44.478Z,9.60
2017-11-06T23:36:13.485Z,9.30
2017-11-06T23:38:41.773Z,9.20
2017-11-06T23:41:10.055Z,9.30
2017-11-06T23:43:39.163Z,9.30
2017-11-06T23:46:07.434Z,9.00
2017-11-06T23:48:35.688Z,9.40
2017-11-06T23:51:04.036Z,8.90
2017-11-06T23:53:32.384Z,9.10
2017-11-06T23:56:00.894Z,9.10
2017-11-06T23:58:29.133Z,8.60
